createdAt,value
2023-11-07T14:31:00.308Z,11.76
2023-11-07T14:33:31.848Z,11.71
2023-11-07T14:36:01.551Z,11.69
2023-11-07T14:38:35.298Z,11.72
2023-11-07T14:41:08.878Z,11.77
2023-11-07T14:43:38.103Z,11.80
2023-11-07T14:46:07.004Z,11.84
2023-11-07T14:48:35.794Z,11.88
2023-11-07T14:51:04.578Z,11.87
2023-11-07T14:53:32.882Z,11.85
2023-11-07T14:56:01.046Z,11.86
2023-11-07T14:58:29.182Z,11.90
2023-11-07T15:00:58.066Z,11.93
2023-11-07T15:03:26.551Z,11.94
2023-11-07T15:05:55.581Z,11.92
2023-11-07T15:08:23.880Z,11.93
2023-11-07T15:10:52.075Z,11.93
2023-11-07T15:13:20.260Z,11.90
2023-11-07T15:15:49.314Z,11.87
2023-11-07T15:18:18.732Z,11.86
2023-11-07T15:20:49.253Z,11.88
2023-11-07T15:23:17.404Z,11.88
2023-11-07T15:25:46.010Z,11.83
2023-11-07T15:28:15.231Z,11.76
2023-11-07T15:30:43.604Z,11.73
2023-11-07T15:33:12.997Z,11.73
2023-11-07T15:35:42.973Z,11.71
2023-11-07T15:38:11.408Z,11.70
2023-11-07T15:40:40.996Z,11.68
2023-11-07T15:43:09.903Z,11.67
2023-11-07T15:45:38.573Z,11.64
2023-11-07T15:48:11.254Z,11.61
2023-11-07T15:50:40.959Z,11.61
2023-11-07T15:53:10.283Z,11.63
2023-11-07T15:55:43.025Z,11.67
2023-11-07T15:58:11.972Z,11.68
2023-11-07T16:00:40.792Z,11.66
2023-11-07T16:03:09.693Z,11.63
2023-11-07T16:05:39.106Z,11.59
2023-11-07T16:08:08.812Z,11.54
2023-11-07T16:10:37.862Z,11.51
2023-11-07T16:13:06.789Z,11.48
2023-11-07T16:15:35.513Z,11.45
2023-11-07T16:18:06.253Z,11.40
2023-11-07T16:20:34.779Z,11.38
2023-11-07T16:23:04.384Z,11.34
2023-11-07T16:25:33.067Z,11.33
2023-11-07T16:28:03.977Z,11.33
2023-11-07T16:30:33.923Z,11.32
2023-11-07T16:33:02.440Z,11.24
2023-11-07T16:35:30.711Z,11.13
2023-11-07T16:37:58.947Z,11.00
2023-11-07T16:40:27.167Z,10.89
2023-11-07T16:42:55.701Z,10.82
2023-11-07T16:45:24.742Z,10.72
2023-11-07T16:47:53.042Z,10.63
2023-11-07T16:50:21.925Z,10.54
2023-11-07T16:52:50.610Z,10.44
2023-11-07T16:55:18.761Z,10.37
2023-11-07T16:57:46.998Z,10.31
2023-11-07T17:00:19.319Z,10.26
2023-11-07T17:02:49.045Z,10.18
2023-11-07T17:05:19.174Z,10.09
2023-11-07T17:07:48.125Z,10.01
2023-11-07T17:10:16.794Z,9.97
2023-11-07T17:12:45.173Z,9.92
2023-11-07T17:15:14.023Z,9.88
2023-11-07T17:17:45.682Z,9.83
2023-11-07T17:20:14.251Z,9.79
2023-11-07T17:22:42.786Z,9.76
2023-11-07T17:25:11.127Z,9.75
2023-11-07T17:27:40.896Z,9.72
2023-11-07T17:30:09.483Z,9.70
2023-11-07T17:32:39.126Z,9.68
2023-11-07T17:35:08.433Z,9.66
2023-11-07T17:37:44.614Z,9.64
2023-11-07T17:40:13.123Z,9.62
2023-11-07T17:42:41.601Z,9.61
2023-11-07T17:45:11.092Z,9.60
2023-11-07T17:47:39.891Z,9.60
2023-11-07T17:50:09.696Z,9.59
2023-11-07T17:52:38.268Z,9.59
2023-11-07T17:55:07.429Z,9.59
2023-11-07T17:57:36.599Z,9.58
2023-11-07T18:00:06.090Z,9.59
2023-11-07T18:02:40.941Z,9.59
2023-11-07T18:05:11.388Z,9.57
2023-11-07T18:07:40.273Z,9.56
2023-11-07T18:10:12.134Z,9.55
2023-11-07T18:12:40.507Z,9.54
2023-11-07T18:15:09.533Z,9.52
2023-11-07T18:17:38.114Z,9.50
2023-11-07T18:20:09.492Z,9.48
2023-11-07T18:22:39.987Z,9.46
2023-11-07T18:25:09.775Z,9.43
2023-11-07T18:27:39.367Z,9.38
2023-11-07T18:30:08.847Z,9.34
2023-11-07T18:32:37.127Z,9.30
2023-11-07T18:35:05.887Z,9.28
2023-11-07T18:37:34.735Z,9.26
2023-11-07T18:40:03.775Z,9.26
2023-11-07T18:42:32.015Z,9.25
2023-11-07T18:45:01.180Z,9.23
2023-11-07T18:47:29.426Z,9.21
2023-11-07T18:50:00.538Z,9.19
2023-11-07T18:52:32.286Z,9.18
2023-11-07T18:55:01.121Z,9.18
2023-11-07T18:57:29.362Z,9.17
2023-11-07T18:59:57.601Z,9.15
2023-11-07T19:02:25.953Z,9.14
2023-11-07T19:04:54.848Z,9.14
2023-11-07T19:07:23.209Z,9.15
2023-11-07T19:09:52.063Z,9.16
2023-11-07T19:12:20.503Z,9.15
2023-11-07T19:14:49.439Z,9.15
2023-11-07T19:17:17.704Z,9.15
2023-11-07T19:19:46.021Z,9.15
2023-11-07T19:22:14.195Z,9.17
2023-11-07T19:24:42.423Z,9.27
2023-11-07T19:27:12.032Z,9.39
2023-11-07T19:29:40.293Z,9.50
2023-11-07T19:32:08.746Z,9.57
2023-11-07T19:34:37.006Z,9.65
2023-11-07T19:37:06.203Z,9.72
2023-11-07T19:39:35.823Z,9.80
2023-11-07T19:42:05.211Z,9.85
2023-11-07T19:44:37.280Z,9.93
2023-11-07T19:47:06.414Z,10.03
2023-11-07T19:49:34.819Z,10.11
2023-11-07T19:52:03.934Z,10.16
2023-11-07T19:54:32.961Z,10.23
2023-11-07T19:57:01.612Z,10.27
2023-11-07T19:59:29.866Z,10.28
2023-11-07T20:01:59.038Z,10.31
2023-11-07T20:04:27.305Z,10.31
2023-11-07T20:06:55.629Z,10.35
2023-11-07T20:09:23.847Z,10.38
2023-11-07T20:11:52.000Z,10.42
2023-11-07T20:14:20.281Z,10.48
2023-11-07T20:16:48.519Z,10.51
2023-11-07T20:19:16.939Z,10.53
2023-11-07T20:21:45.734Z,10.56
2023-11-07T20:24:14.182Z,10.58
2023-11-07T20:26:42.432Z,10.61
2023-11-07T20:29:10.586Z,10.63
2023-11-07T20:31:38.751Z,10.63
2023-11-07T20:34:07.055Z,10.65
2023-11-07T20:36:35.623Z,10.65
2023-11-07T20:39:06.708Z,10.62
2023-11-07T20:41:37.531Z,10.61
2023-11-07T20:44:07.621Z,10.59
2023-11-07T20:46:36.726Z,10.58
2023-11-07T20:49:06.729Z,10.59
2023-11-07T20:51:36.568Z,10.62
2023-11-07T20:54:05.593Z,10.62
2023-11-07T20:56:34.698Z,10.60
2023-11-07T20:59:04.348Z,10.56
2023-11-07T21:01:33.580Z,10.53
2023-11-07T21:04:02.645Z,10.52
2023-11-07T21:06:31.061Z,10.51
2023-11-07T21:08:59.966Z,10.52
2023-11-07T21:11:28.223Z,10.57
2023-11-07T21:13:57.129Z,10.60
2023-11-07T21:16:25.368Z,10.59
2023-11-07T21:18:55.758Z,10.62
2023-11-07T21:21:24.328Z,10.63
2023-11-07T21:23:53.352Z,10.61
2023-11-07T21:26:24.518Z,10.62
2023-11-07T21:28:53.694Z,10.61
2023-11-07T21:31:22.150Z,10.59
2023-11-07T21:33:51.139Z,10.58
2023-11-07T21:36:19.617Z,10.56
2023-11-07T21:38:48.595Z,10.55
2023-11-07T21:41:16.806Z,10.58
2023-11-07T21:43:46.748Z,10.62
2023-11-07T21:46:15.653Z,10.62
2023-11-07T21:48:46.647Z,10.60
2023-11-07T21:51:15.896Z,10.61
2023-11-07T21:53:44.076Z,10.59
2023-11-07T21:56:14.410Z,10.58
2023-11-07T21:58:43.155Z,10.56
2023-11-07T22:01:12.191Z,10.57
2023-11-07T22:03:40.402Z,10.59
2023-11-07T22:06:08.629Z,10.60
2023-11-07T22:08:36.873Z,10.59
2023-11-07T22:11:07.546Z,10.58
2023-11-07T22:13:39.330Z,10.52
2023-11-07T22:16:07.545Z,10.46
2023-11-07T22:18:35.901Z,10.36
2023-11-07T22:21:05.035Z,10.31
2023-11-07T22:23:34.418Z,10.27
2023-11-07T22:26:02.600Z,10.20
2023-11-07T22:28:30.817Z,10.13
2023-11-07T22:31:00.332Z,10.06
2023-11-07T22:33:28.789Z,10.00
2023-11-07T22:35:56.980Z,9.95
2023-11-07T22:38:27.533Z,9.91
2023-11-07T22:40:56.232Z,9.87
2023-11-07T22:43:24.411Z,9.84
2023-11-07T22:45:52.532Z,9.81
2023-11-07T22:48:22.008Z,9.77
2023-11-07T22:50:50.479Z,9.73
2023-11-07T22:53:19.843Z,9.70
2023-11-07T22:55:48.668Z,9.66
2023-11-07T22:58:16.826Z,9.63
2023-11-07T23:00:49.657Z,9.59
2023-11-07T23:03:17.924Z,9.55
2023-11-07T23:05:46.370Z,9.53
2023-11-07T23:08:14.801Z,9.51
2023-11-07T23:10:43.769Z,9.50
2023-11-07T23:13:12.184Z,9.49
2023-11-07T23:15:40.475Z,9.49
2023-11-07T23:18:09.411Z,9.48
2023-11-07T23:20:41.580Z,9.46
2023-11-07T23:23:10.755Z,9.45
2023-11-07T23:25:42.494Z,9.42
2023-11-07T23:28:11.961Z,9.38
2023-11-07T23:30:40.240Z,9.36
2023-11-07T23:33:08.637Z,9.34
2023-11-07T23:35:36.986Z,9.30
2023-11-07T23:38:05.202Z,9.28
2023-11-07T23:40:36.985Z,9.26
2023-11-07T23:43:05.241Z,9.24
2023-11-07T23:45:33.811Z,9.23
2023-11-07T23:48:02.425Z,9.22
2023-11-07T23:50:30.633Z,9.22
2023-11-07T23:52:58.750Z,9.23
2023-11-07T23:55:26.976Z,9.22
2023-11-07T23:57:55.625Z,9.22
